createdAt,value
2023-03-22T00:01:33.541Z,100908.81
2023-03-22T00:12:16.981Z,100903.44
2023-03-22T00:17:13.353Z,100892.69
2023-03-22T00:22:14.467Z,100896.41
2023-03-22T00:27:12.566Z,100887.06
2023-03-22T00:32:10.850Z,100871.22
2023-03-22T00:37:08.913Z,100872.63
2023-03-22T00:42:06.498Z,100873.22
2023-03-22T00:47:03.209Z,100873.44
2023-03-22T00:51:59.648Z,100864.91
2023-03-22T01:02:53.634Z,100851.63
2023-03-22T01:20:29.910Z,100842.31
2023-03-22T01:25:26.303Z,100825.75
2023-03-22T01:30:22.784Z,100821.94
2023-03-22T01:35:19.340Z,100818.59
2023-03-22T01:40:16.094Z,100813.94
2023-03-22T01:45:15.758Z,100804.66
2023-03-22T01:50:12.463Z,100802.22
2023-03-22T01:55:09.341Z,100795.97
2023-03-22T02:00:10.870Z,100782.25
2023-03-22T02:05:07.747Z,100781.44
2023-03-22T02:10:04.923Z,100775.38
2023-03-22T02:15:21.568Z,100776.19
2023-03-22T02:20:58.274Z,100764.31
2023-03-22T02:26:09.614Z,100766.25
2023-03-22T02:31:29.888Z,100765.84
2023-03-22T02:36:34.606Z,100757.97
2023-03-22T02:41:44.104Z,100748.72
2023-03-22T02:46:46.452Z,100741.06
2023-03-22T02:51:50.155Z,100737.19
2023-03-22T02:57:04.112Z,100737.19
2023-03-22T03:02:03.725Z,100735.59
2023-03-22T03:07:09.357Z,100728.00
2023-03-22T03:12:14.479Z,100727.03
2023-03-22T03:17:22.400Z,100721.88
2023-03-22T03:22:57.759Z,100718.75
2023-03-22T03:28:12.411Z,100715.66
2023-03-22T03:33:16.489Z,100712.03
2023-03-22T03:38:18.552Z,100708.16
2023-03-22T03:43:16.312Z,100701.13
2023-03-22T03:48:20.332Z,100703.13
2023-03-22T03:53:16.766Z,100701.63
2023-03-22T03:58:13.311Z,100685.03
2023-03-22T04:03:10.039Z,100690.16
2023-03-22T04:08:06.942Z,100681.22
2023-03-22T04:13:03.309Z,100678.72
2023-03-22T04:17:59.925Z,100689.13
2023-03-22T04:22:57.938Z,100673.72
2023-03-22T04:27:55.860Z,100674.72
2023-03-22T04:32:52.274Z,100668.28
2023-03-22T04:37:49.032Z,100660.59
2023-03-22T04:42:45.576Z,100666.50
2023-03-22T04:47:42.179Z,100661.03
2023-03-22T04:52:38.724Z,100653.78
2023-03-22T04:57:35.634Z,100649.13
2023-03-22T05:02:32.181Z,100654.25
2023-03-22T05:07:28.649Z,100655.38
2023-03-22T05:12:25.681Z,100652.38
2023-03-22T05:17:22.422Z,100646.09
2023-03-22T05:22:19.197Z,100643.84
2023-03-22T05:27:15.636Z,100649.69
2023-03-22T05:32:12.067Z,100651.91
2023-03-22T05:37:08.488Z,100653.53
2023-03-22T05:42:05.159Z,100658.38
2023-03-22T05:47:01.737Z,100663.22
2023-03-22T05:51:58.199Z,100656.72
2023-03-22T05:56:55.782Z,100657.50
2023-03-22T06:01:52.285Z,100656.88
2023-03-22T06:06:48.850Z,100657.72
2023-03-22T06:11:45.541Z,100655.03
2023-03-22T06:16:42.088Z,100638.06
2023-03-22T06:21:38.955Z,100628.31
2023-03-22T06:26:35.405Z,100631.59
2023-03-22T06:31:31.874Z,100641.09
2023-03-22T06:36:29.527Z,100625.25
2023-03-22T06:41:27.042Z,100625.81
2023-03-22T06:46:23.597Z,100638.06
2023-03-22T06:51:20.071Z,100636.63
2023-03-22T06:56:16.519Z,100637.56
2023-03-22T07:01:13.006Z,100636.09
2023-03-22T07:06:09.758Z,100636.72
2023-03-22T07:11:06.714Z,100634.47
2023-03-22T07:16:03.490Z,100630.31
2023-03-22T07:21:00.148Z,100631.94
2023-03-22T07:25:56.545Z,100617.81
2023-03-22T07:31:04.156Z,100621.81
2023-03-22T07:36:00.989Z,100612.63
2023-03-22T07:40:57.471Z,100602.19
2023-03-22T07:45:54.185Z,100614.56
2023-03-22T07:50:55.410Z,100596.47
2023-03-22T07:55:51.932Z,100594.41
2023-03-22T08:00:49.633Z,100583.66
2023-03-22T08:05:46.220Z,100568.84
2023-03-22T08:10:42.814Z,100551.00
2023-03-22T08:15:39.509Z,100532.72
2023-03-22T08:20:38.205Z,100533.06
2023-03-22T08:25:35.230Z,100530.16
2023-03-22T08:30:31.732Z,100514.09
2023-03-22T08:35:28.180Z,100508.47
2023-03-22T08:40:24.777Z,100516.97
2023-03-22T08:45:21.606Z,100508.78
2023-03-22T08:50:18.015Z,100507.25
2023-03-22T08:55:17.185Z,100493.25
2023-03-22T09:00:14.384Z,100486.16
2023-03-22T09:05:11.161Z,100486.75
2023-03-22T09:10:08.489Z,100483.63
2023-03-22T09:15:06.212Z,100474.94
2023-03-22T09:20:12.010Z,100469.88
2023-03-22T09:25:12.533Z,100458.22
2023-03-22T09:30:09.783Z,100456.47
2023-03-22T09:35:06.930Z,100463.97
2023-03-22T09:40:05.669Z,100455.31
2023-03-22T09:45:04.030Z,100440.84
2023-03-22T09:50:06.875Z,100435.56
2023-03-22T09:55:03.473Z,100429.63
2023-03-22T10:00:22.508Z,100434.97
2023-03-22T10:05:19.062Z,100421.16
2023-03-22T10:10:20.022Z,100410.03
2023-03-22T10:15:21.011Z,100411.78
2023-03-22T10:20:28.654Z,100402.19
2023-03-22T10:25:33.927Z,100409.25
2023-03-22T10:30:36.221Z,100420.44
2023-03-22T10:35:32.782Z,100417.88
2023-03-22T10:40:33.595Z,100424.75
2023-03-22T10:45:33.526Z,100416.78
2023-03-22T10:50:34.597Z,100417.47
2023-03-22T10:55:31.357Z,100409.75
2023-03-22T11:00:28.753Z,100418.88
2023-03-22T11:05:27.310Z,100430.56
2023-03-22T11:10:27.594Z,100408.13
2023-03-22T11:15:28.664Z,100411.78
2023-03-22T11:20:25.238Z,100406.78
2023-03-22T11:25:30.306Z,100428.03
2023-03-22T11:30:28.655Z,100422.66
2023-03-22T11:35:27.010Z,100414.78
2023-03-22T11:40:29.027Z,100420.84
2023-03-22T11:45:32.009Z,100434.97
2023-03-22T11:50:31.671Z,100418.88
2023-03-22T11:55:31.728Z,100431.22
2023-03-22T12:00:30.756Z,100417.53
2023-03-22T12:05:31.378Z,100434.88
2023-03-22T12:10:39.885Z,100414.41
2023-03-22T12:15:40.704Z,100412.47
2023-03-22T12:20:55.853Z,100409.16
2023-03-22T12:26:06.366Z,100402.78
2023-03-22T12:31:04.456Z,100407.91
2023-03-22T12:36:05.153Z,100397.34
2023-03-22T12:41:07.293Z,100396.00
2023-03-22T12:46:06.377Z,100397.13
2023-03-22T12:51:08.196Z,100405.81
2023-03-22T12:56:05.525Z,100392.78
2023-03-22T13:01:31.660Z,100407.69
2023-03-22T13:06:54.845Z,100430.09
2023-03-22T13:12:18.850Z,100440.94
2023-03-22T13:17:36.797Z,100448.44
2023-03-22T13:22:35.920Z,100456.84
2023-03-22T13:27:58.619Z,100448.50
2023-03-22T13:33:10.126Z,100465.69
2023-03-22T13:38:19.817Z,100462.78
2023-03-22T13:43:35.229Z,100454.72
2023-03-22T13:49:01.116Z,100438.69
2023-03-22T13:54:18.610Z,100448.81
2023-03-22T13:59:27.707Z,100444.13
2023-03-22T14:04:45.401Z,100449.25
2023-03-22T14:10:18.215Z,100445.06
2023-03-22T14:15:18.708Z,100456.63
2023-03-22T14:20:21.531Z,100461.09
